sensor_id;sensor_type;location;lat;lon;timestamp;temperature;humidity
42907;DHT22;28552;51.146;6.576;2023-11-19T00:02:21;11.60;99.90
42907;DHT22;28552;51.146;6.576;2023-11-19T00:05:22;11.60;99.90
42907;DHT22;28552;51.146;6.576;2023-11-19T00:08:22;11.50;99.90
42907;DHT22;28552;51.146;6.576;2023-11-19T00:11:25;11.60;99.90
42907;DHT22;28552;51.146;6.576;2023-11-19T00:14:26;11.60;99.90
42907;DHT22;28552;51.146;6.576;2023-11-19T00:17:26;11.70;99.90
42907;DHT22;28552;51.146;6.576;2023-11-19T00:20:27;11.70;99.90
42907;DHT22;28552;51.146;6.576;2023-11-19T00:23:29;11.70;99.90
42907;DHT22;28552;51.146;6.576;2023-11-19T00:26:29;11.70;99.90
42907;DHT22;28552;51.146;6.576;2023-11-19T00:29:30;11.80;99.90
42907;DHT22;28552;51.146;6.576;2023-11-19T00:32:32;11.80;99.90
42907;DHT22;28552;51.146;6.576;2023-11-19T00:35:32;11.80;99.90
42907;DHT22;28552;51.146;6.576;2023-11-19T00:38:33;11.90;99.90
42907;DHT22;28552;51.146;6.576;2023-11-19T00:41:33;11.90;99.90
42907;DHT22;28552;51.146;6.576;2023-11-19T00:44:34;11.90;99.90
42907;DHT22;28552;51.146;6.576;2023-11-19T00:47:34;12.00;99.90
42907;DHT22;28552;51.146;6.576;2023-11-19T00:50:35;12.00;99.90
42907;DHT22;28552;51.146;6.576;2023-11-19T00:53:36;12.00;99.90
42907;DHT22;28552;51.146;6.576;2023-11-19T00:56:36;12.00;99.90
42907;DHT22;28552;51.146;6.576;2023-11-19T00:59:37;12.00;99.90
42907;DHT22;28552;51.146;6.576;2023-11-19T01:02:38;12.00;99.90
42907;DHT22;28552;51.146;6.576;2023-11-19T01:05:39;12.10;99.90
42907;DHT22;28552;51.146;6.576;2023-11-19T01:08:39;12.10;99.90
42907;DHT22;28552;51.146;6.576;2023-11-19T01:11:40;12.10;99.90
42907;DHT22;28552;51.146;6.576;2023-11-19T01:14:40;12.10;99.90
42907;DHT22;28552;51.146;6.576;2023-11-19T01:17:41;12.10;99.90
42907;DHT22;28552;51.146;6.576;2023-11-19T01:20:41;12.10;99.90
42907;DHT22;28552;51.146;6.576;2023-11-19T01:23:42;12.20;99.90
42907;DHT22;28552;51.146;6.576;2023-11-19T01:26:44;12.20;99.90
42907;DHT22;28552;51.146;6.576;2023-11-19T01:29:45;12.20;99.90
42907;DHT22;28552;51.146;6.576;2023-11-19T01:32:46;12.20;99.90
42907;DHT22;28552;51.146;6.576;2023-11-19T01:35:46;12.20;99.90
42907;DHT22;28552;51.146;6.576;2023-11-19T01:38:47;12.20;99.90
42907;DHT22;28552;51.146;6.576;2023-11-19T01:41:47;12.20;99.90
42907;DHT22;28552;51.146;6.576;2023-11-19T01:45:03;12.20;99.90
42907;DHT22;28552;51.146;6.576;2023-11-19T01:48:07;12.20;99.90
42907;DHT22;28552;51.146;6.576;2023-11-19T01:51:11;12.20;99.90
42907;DHT22;28552;51.146;6.576;2023-11-19T01:54:13;12.20;99.90
42907;DHT22;28552;51.146;6.576;2023-11-19T01:57:15;12.20;99.90
42907;DHT22;28552;51.146;6.576;2023-11-19T02:00:16;12.20;99.90
42907;DHT22;28552;51.146;6.576;2023-11-19T02:03:17;12.20;99.90
42907;DHT22;28552;51.146;6.576;2023-11-19T02:06:19;12.30;99.90
42907;DHT22;28552;51.146;6.576;2023-11-19T02:09:20;12.30;99.90
42907;DHT22;28552;51.146;6.576;2023-11-19T02:12:21;12.40;99.90
42907;DHT22;28552;51.146;6.576;2023-11-19T02:15:21;12.40;99.90
42907;DHT22;28552;51.146;6.576;2023-11-19T02:18:26;12.40;99.90
42907;DHT22;28552;51.146;6.576;2023-11-19T02:21:28;12.40;99.90
42907;DHT22;28552;51.146;6.576;2023-11-19T02:24:30;12.40;99.90
42907;DHT22;28552;51.146;6.576;2023-11-19T02:27:53;12.40;99.90
42907;DHT22;28552;51.146;6.576;2023-11-19T02:30:57;12.40;99.90
42907;DHT22;28552;51.146;6.576;2023-11-19T02:33:59;12.40;99.90
42907;DHT22;28552;51.146;6.576;2023-11-19T02:37:01;12.30;99.90
42907;DHT22;28552;51.146;6.576;2023-11-19T02:40:02;12.30;99.90
42907;DHT22;28552;51.146;6.576;2023-11-19T02:43:03;12.20;99.90
42907;DHT22;28552;51.146;6.576;2023-11-19T02:46:06;12.20;99.90
42907;DHT22;28552;51.146;6.576;2023-11-19T02:49:07;12.20;99.90
42907;DHT22;28552;51.146;6.576;2023-11-19T02:52:08;12.30;99.90
42907;DHT22;28552;51.146;6.576;2023-11-19T02:55:11;12.30;99.90
42907;DHT22;28552;51.146;6.576;2023-11-19T02:58:13;12.40;99.90
42907;DHT22;28552;51.146;6.576;2023-11-19T03:01:22;12.40;99.90
42907;DHT22;28552;51.146;6.576;2023-11-19T03:04:29;12.30;99.90
42907;DHT22;28552;51.146;6.576;2023-11-19T03:07:31;12.30;99.90
42907;DHT22;28552;51.146;6.576;2023-11-19T03:10:31;12.30;99.90
42907;DHT22;28552;51.146;6.576;2023-11-19T03:13:32;12.30;99.90
42907;DHT22;28552;51.146;6.576;2023-11-19T03:16:32;12.30;99.90
42907;DHT22;28552;51.146;6.576;2023-11-19T03:19:33;12.20;99.90
42907;DHT22;28552;51.146;6.576;2023-11-19T03:22:33;12.30;99.90
42907;DHT22;28552;51.146;6.576;2023-11-19T03:25:34;12.30;99.90
42907;DHT22;28552;51.146;6.576;2023-11-19T03:28:36;12.40;99.90
42907;DHT22;28552;51.146;6.576;2023-11-19T03:31:42;12.40;99.90
42907;DHT22;28552;51.146;6.576;2023-11-19T03:34:43;12.50;99.90
42907;DHT22;28552;51.146;6.576;2023-11-19T03:37:43;12.50;99.90
42907;DHT22;28552;51.146;6.576;2023-11-19T03:40:44;12.50;99.90
42907;DHT22;28552;51.146;6.576;2023-11-19T03:43:44;12.50;99.90
42907;DHT22;28552;51.146;6.576;2023-11-19T03:46:45;12.50;99.90
42907;DHT22;28552;51.146;6.576;2023-11-19T03:49:50;12.40;99.90
42907;DHT22;28552;51.146;6.576;2023-11-19T03:52:50;12.40;99.90
42907;DHT22;28552;51.146;6.576;2023-11-19T03:55:51;12.40;99.90
42907;DHT22;28552;51.146;6.576;2023-11-19T03:58:52;12.40;99.90
42907;DHT22;28552;51.146;6.576;2023-11-19T04:01:53;12.30;99.90
42907;DHT22;28552;51.146;6.576;2023-11-19T04:04:54;12.20;99.90
42907;DHT22;28552;51.146;6.576;2023-11-19T04:07:55;12.10;99.90
42907;DHT22;28552;51.146;6.576;2023-11-19T04:10:56;12.00;99.90
42907;DHT22;28552;51.146;6.576;2023-11-19T04:13:57;11.90;99.90
42907;DHT22;28552;51.146;6.576;2023-11-19T04:16:57;11.80;99.90
42907;DHT22;28552;51.146;6.576;2023-11-19T04:19:58;11.80;99.90
42907;DHT22;28552;51.146;6.576;2023-11-19T04:22:59;11.70;99.90
42907;DHT22;28552;51.146;6.576;2023-11-19T04:26:02;11.70;99.90
42907;DHT22;28552;51.146;6.576;2023-11-19T04:29:04;11.70;99.90
42907;DHT22;28552;51.146;6.576;2023-11-19T04:32:05;11.70;99.90
42907;DHT22;28552;51.146;6.576;2023-11-19T04:35:06;11.60;99.90
42907;DHT22;28552;51.146;6.576;2023-11-19T04:38:07;11.60;99.90
42907;DHT22;28552;51.146;6.576;2023-11-19T04:41:08;11.70;99.90
42907;DHT22;28552;51.146;6.576;2023-11-19T04:44:08;11.70;99.90
42907;DHT22;28552;51.146;6.576;2023-11-19T04:47:09;11.80;99.90
42907;DHT22;28552;51.146;6.576;2023-11-19T04:50:11;11.80;99.90
42907;DHT22;28552;51.146;6.576;2023-11-19T04:53:12;11.80;99.90
42907;DHT22;28552;51.146;6.576;2023-11-19T04:56:12;11.80;99.90
42907;DHT22;28552;51.146;6.576;2023-11-19T04:59:13;11.70;99.90
42907;DHT22;28552;51.146;6.576;2023-11-19T05:02:14;11.70;99.90
42907;DHT22;28552;51.146;6.576;2023-11-19T05:05:16;11.80;99.90
42907;DHT22;28552;51.146;6.576;2023-11-19T05:08:17;11.90;99.90
42907;DHT22;28552;51.146;6.576;2023-11-19T05:11:18;11.90;99.90
42907;DHT22;28552;51.146;6.576;2023-11-19T05:14:20;11.90;99.90
42907;DHT22;28552;51.146;6.576;2023-11-19T05:17:21;11.90;99.90
42907;DHT22;28552;51.146;6.576;2023-11-19T05:20:22;11.80;99.90
42907;DHT22;28552;51.146;6.576;2023-11-19T05:23:22;11.80;99.90
42907;DHT22;28552;51.146;6.576;2023-11-19T05:26:23;11.70;99.90
42907;DHT22;28552;51.146;6.576;2023-11-19T05:29:24;11.70;99.90
42907;DHT22;28552;51.146;6.576;2023-11-19T05:32:24;11.70;99.90
42907;DHT22;28552;51.146;6.576;2023-11-19T05:35:25;11.70;99.90
42907;DHT22;28552;51.146;6.576;2023-11-19T05:38:25;11.70;99.90
42907;DHT22;28552;51.146;6.576;2023-11-19T05:41:26;11.70;99.90
42907;DHT22;28552;51.146;6.576;2023-11-19T05:44:27;11.70;99.90
42907;DHT22;28552;51.146;6.576;2023-11-19T05:47:27;11.60;99.90
42907;DHT22;28552;51.146;6.576;2023-11-19T05:50:27;11.60;99.90
42907;DHT22;28552;51.146;6.576;2023-11-19T05:53:28;11.70;99.90
42907;DHT22;28552;51.146;6.576;2023-11-19T05:56:29;11.70;99.90
42907;DHT22;28552;51.146;6.576;2023-11-19T05:59:32;11.70;99.90
42907;DHT22;28552;51.146;6.576;2023-11-19T06:02:34;11.70;99.90
42907;DHT22;28552;51.146;6.576;2023-11-19T06:05:34;11.70;99.90
42907;DHT22;28552;51.146;6.576;2023-11-19T06:08:35;11.70;99.90
42907;DHT22;28552;51.146;6.576;2023-11-19T06:11:35;11.70;99.90
42907;DHT22;28552;51.146;6.576;2023-11-19T06:14:36;11.70;99.90
42907;DHT22;28552;51.146;6.576;2023-11-19T06:17:37;11.70;99.90
42907;DHT22;28552;51.146;6.576;2023-11-19T06:20:37;11.70;99.90
42907;DHT22;28552;51.146;6.576;2023-11-19T06:23:38;11.70;99.90
42907;DHT22;28552;51.146;6.576;2023-11-19T06:26:39;11.70;99.90
42907;DHT22;28552;51.146;6.576;2023-11-19T06:29:39;11.60;99.90
42907;DHT22;28552;51.146;6.576;2023-11-19T06:32:41;11.60;99.90
42907;DHT22;28552;51.146;6.576;2023-11-19T06:35:41;11.70;99.90
42907;DHT22;28552;51.146;6.576;2023-11-19T06:38:43;11.60;99.90
42907;DHT22;28552;51.146;6.576;2023-11-19T06:41:45;11.60;99.90
42907;DHT22;28552;51.146;6.576;2023-11-19T06:44:46;11.50;99.90
42907;DHT22;28552;51.146;6.576;2023-11-19T06:47:47;11.50;99.90
42907;DHT22;28552;51.146;6.576;2023-11-19T06:50:47;11.50;99.90
42907;DHT22;28552;51.146;6.576;2023-11-19T06:53:48;11.50;99.90
42907;DHT22;28552;51.146;6.576;2023-11-19T06:56:48;11.40;99.90
42907;DHT22;28552;51.146;6.576;2023-11-19T06:59:49;11.40;99.90
42907;DHT22;28552;51.146;6.576;2023-11-19T07:02:49;11.30;99.90
42907;DHT22;28552;51.146;6.576;2023-11-19T07:05:51;11.30;99.90
42907;DHT22;28552;51.146;6.576;2023-11-19T07:08:52;11.20;99.90
42907;DHT22;28552;51.146;6.576;2023-11-19T07:11:52;11.20;99.90
42907;DHT22;28552;51.146;6.576;2023-11-19T07:14:54;11.20;99.90
42907;DHT22;28552;51.146;6.576;2023-11-19T07:17:55;11.20;99.90
42907;DHT22;28552;51.146;6.576;2023-11-19T07:20:55;11.20;99.90
42907;DHT22;28552;51.146;6.576;2023-11-19T07:23:56;11.20;99.90
42907;DHT22;28552;51.146;6.576;2023-11-19T07:26:57;11.30;99.90
42907;DHT22;28552;51.146;6.576;2023-11-19T07:29:57;11.20;99.90
42907;DHT22;28552;51.146;6.576;2023-11-19T07:32:58;11.10;99.90
42907;DHT22;28552;51.146;6.576;2023-11-19T07:35:58;11.10;99.90
42907;DHT22;28552;51.146;6.576;2023-11-19T07:38:59;11.10;99.90
42907;DHT22;28552;51.146;6.576;2023-11-19T07:42:00;11.00;99.90
42907;DHT22;28552;51.146;6.576;2023-11-19T07:45:00;11.00;99.90
42907;DHT22;28552;51.146;6.576;2023-11-19T07:48:01;11.10;99.90
42907;DHT22;28552;51.146;6.576;2023-11-19T07:51:01;11.10;99.90
42907;DHT22;28552;51.146;6.576;2023-11-19T07:54:02;11.10;99.90
42907;DHT22;28552;51.146;6.576;2023-11-19T07:57:04;11.20;99.90
42907;DHT22;28552;51.146;6.576;2023-11-19T08:00:05;11.30;99.90
42907;DHT22;28552;51.146;6.576;2023-11-19T08:03:06;11.30;99.90
42907;DHT22;28552;51.146;6.576;2023-11-19T08:06:06;11.40;99.90
42907;DHT22;28552;51.146;6.576;2023-11-19T08:09:07;11.50;99.90
42907;DHT22;28552;51.146;6.576;2023-11-19T08:12:13;11.50;99.90
42907;DHT22;28552;51.146;6.576;2023-11-19T08:15:16;11.50;99.90
42907;DHT22;28552;51.146;6.576;2023-11-19T08:18:16;11.50;99.90
42907;DHT22;28552;51.146;6.576;2023-11-19T08:21:18;11.60;99.90
42907;DHT22;28552;51.146;6.576;2023-11-19T08:24:19;11.60;99.90
42907;DHT22;28552;51.146;6.576;2023-11-19T08:27:19;11.60;99.90
42907;DHT22;28552;51.146;6.576;2023-11-19T08:30:27;11.70;99.90
42907;DHT22;28552;51.146;6.576;2023-11-19T08:33:27;11.70;99.90
42907;DHT22;28552;51.146;6.576;2023-11-19T08:36:28;11.70;99.90
42907;DHT22;28552;51.146;6.576;2023-11-19T08:39:28;11.70;99.90
42907;DHT22;28552;51.146;6.576;2023-11-19T08:42:29;11.80;99.90
42907;DHT22;28552;51.146;6.576;2023-11-19T08:45:30;11.80;99.90
42907;DHT22;28552;51.146;6.576;2023-11-19T08:48:31;11.80;99.90
42907;DHT22;28552;51.146;6.576;2023-11-19T08:51:31;11.80;99.90
42907;DHT22;28552;51.146;6.576;2023-11-19T08:54:32;11.80;99.90
42907;DHT22;28552;51.146;6.576;2023-11-19T08:57:33;11.90;99.90
42907;DHT22;28552;51.146;6.576;2023-11-19T09:00:34;11.90;99.90
42907;DHT22;28552;51.146;6.576;2023-11-19T09:03:34;11.90;99.90
42907;DHT22;28552;51.146;6.576;2023-11-19T09:06:36;12.00;99.90
42907;DHT22;28552;51.146;6.576;2023-11-19T09:09:36;12.00;99.90
42907;DHT22;28552;51.146;6.576;2023-11-19T09:12:37;12.00;99.90
42907;DHT22;28552;51.146;6.576;2023-11-19T09:15:38;12.00;99.90
42907;DHT22;28552;51.146;6.576;2023-11-19T09:18:39;12.10;99.90
42907;DHT22;28552;51.146;6.576;2023-11-19T09:21:39;12.10;99.90
42907;DHT22;28552;51.146;6.576;2023-11-19T09:24:40;12.20;99.90
42907;DHT22;28552;51.146;6.576;2023-11-19T09:27:40;12.20;99.90
42907;DHT22;28552;51.146;6.576;2023-11-19T09:30:41;12.20;99.90
42907;DHT22;28552;51.146;6.576;2023-11-19T09:33:41;12.20;99.90
42907;DHT22;28552;51.146;6.576;2023-11-19T09:36:42;12.30;99.90
42907;DHT22;28552;51.146;6.576;2023-11-19T09:39:44;12.30;99.90
42907;DHT22;28552;51.146;6.576;2023-11-19T09:42:45;12.30;99.90
42907;DHT22;28552;51.146;6.576;2023-11-19T09:45:48;12.40;99.90
42907;DHT22;28552;51.146;6.576;2023-11-19T09:48:52;12.30;99.90
42907;DHT22;28552;51.146;6.576;2023-11-19T09:51:55;12.40;99.90
42907;DHT22;28552;51.146;6.576;2023-11-19T09:54:55;12.50;99.90
42907;DHT22;28552;51.146;6.576;2023-11-19T09:57:57;12.70;99.90
42907;DHT22;28552;51.146;6.576;2023-11-19T10:01:01;12.90;99.90
42907;DHT22;28552;51.146;6.576;2023-11-19T10:04:07;13.00;99.90
42907;DHT22;28552;51.146;6.576;2023-11-19T10:07:08;13.00;99.90
42907;DHT22;28552;51.146;6.576;2023-11-19T10:10:08;13.00;99.90
42907;DHT22;28552;51.146;6.576;2023-11-19T10:13:11;13.10;99.90
42907;DHT22;28552;51.146;6.576;2023-11-19T10:16:15;13.10;99.90
42907;DHT22;28552;51.146;6.576;2023-11-19T10:19:19;13.00;99.90
42907;DHT22;28552;51.146;6.576;2023-11-19T10:22:23;13.00;99.90
42907;DHT22;28552;51.146;6.576;2023-11-19T10:25:26;13.00;99.90
42907;DHT22;28552;51.146;6.576;2023-11-19T10:28:27;13.00;99.90
42907;DHT22;28552;51.146;6.576;2023-11-19T10:31:27;13.20;99.90
42907;DHT22;28552;51.146;6.576;2023-11-19T10:34:28;13.20;99.90
42907;DHT22;28552;51.146;6.576;2023-11-19T10:37:30;13.20;99.90
42907;DHT22;28552;51.146;6.576;2023-11-19T10:40:40;13.30;99.90
42907;DHT22;28552;51.146;6.576;2023-11-19T10:43:44;13.30;99.90
42907;DHT22;28552;51.146;6.576;2023-11-19T10:46:45;13.30;99.90
42907;DHT22;28552;51.146;6.576;2023-11-19T10:49:46;13.30;99.90
42907;DHT22;28552;51.146;6.576;2023-11-19T10:52:48;13.20;99.90
42907;DHT22;28552;51.146;6.576;2023-11-19T10:55:48;13.10;99.90
42907;DHT22;28552;51.146;6.576;2023-11-19T10:58:51;13.10;99.90
42907;DHT22;28552;51.146;6.576;2023-11-19T11:01:53;13.20;99.90
42907;DHT22;28552;51.146;6.576;2023-11-19T11:04:56;13.20;99.90
42907;DHT22;28552;51.146;6.576;2023-11-19T11:07:58;13.20;99.90
42907;DHT22;28552;51.146;6.576;2023-11-19T11:10:59;13.20;99.90
42907;DHT22;28552;51.146;6.576;2023-11-19T11:14:01;13.10;99.90
42907;DHT22;28552;51.146;6.576;2023-11-19T11:17:02;13.00;99.90
42907;DHT22;28552;51.146;6.576;2023-11-19T11:20:04;13.00;99.90
42907;DHT22;28552;51.146;6.576;2023-11-19T11:27:02;13.10;99.90
42907;DHT22;28552;51.146;6.576;2023-11-19T11:37:18;13.70;99.90
42907;DHT22;28552;51.146;6.576;2023-11-19T11:40:20;14.00;99.90
42907;DHT22;28552;51.146;6.576;2023-11-19T11:46:54;14.00;99.90
42907;DHT22;28552;51.146;6.576;2023-11-19T11:49:55;13.70;99.90
42907;DHT22;28552;51.146;6.576;2023-11-19T11:55:59;13.60;99.90
42907;DHT22;28552;51.146;6.576;2023-11-19T11:59:00;13.60;99.90
42907;DHT22;28552;51.146;6.576;2023-11-19T12:02:01;13.50;99.90
42907;DHT22;28552;51.146;6.576;2023-11-19T12:05:03;13.50;99.90
42907;DHT22;28552;51.146;6.576;2023-11-19T12:08:06;13.50;99.90
42907;DHT22;28552;51.146;6.576;2023-11-19T12:11:07;13.60;99.90
42907;DHT22;28552;51.146;6.576;2023-11-19T12:14:09;13.70;99.90
42907;DHT22;28552;51.146;6.576;2023-11-19T12:17:36;13.80;99.90
42907;DHT22;28552;51.146;6.576;2023-11-19T12:20:38;13.80;99.90
42907;DHT22;28552;51.146;6.576;2023-11-19T12:23:47;13.80;99.90
42907;DHT22;28552;51.146;6.576;2023-11-19T12:26:48;13.70;99.90
42907;DHT22;28552;51.146;6.576;2023-11-19T12:29:51;13.70;99.90
42907;DHT22;28552;51.146;6.576;2023-11-19T12:32:53;13.60;99.90
42907;DHT22;28552;51.146;6.576;2023-11-19T12:35:54;13.40;99.90
42907;DHT22;28552;51.146;6.576;2023-11-19T12:38:54;13.10;99.90
42907;DHT22;28552;51.146;6.576;2023-11-19T12:41:55;13.00;99.90
42907;DHT22;28552;51.146;6.576;2023-11-19T12:44:55;13.00;99.90
42907;DHT22;28552;51.146;6.576;2023-11-19T12:48:04;13.00;99.90
42907;DHT22;28552;51.146;6.576;2023-11-19T12:51:05;13.10;99.90
42907;DHT22;28552;51.146;6.576;2023-11-19T12:54:06;13.20;99.90
42907;DHT22;28552;51.146;6.576;2023-11-19T12:57:06;13.20;99.90
42907;DHT22;28552;51.146;6.576;2023-11-19T13:00:07;13.30;99.90
42907;DHT22;28552;51.146;6.576;2023-11-19T13:03:29;13.30;99.90
42907;DHT22;28552;51.146;6.576;2023-11-19T13:06:31;13.30;99.90
42907;DHT22;28552;51.146;6.576;2023-11-19T13:09:31;13.30;99.90
42907;DHT22;28552;51.146;6.576;2023-11-19T13:12:32;13.30;99.90
42907;DHT22;28552;51.146;6.576;2023-11-19T13:15:33;13.30;99.90
42907;DHT22;28552;51.146;6.576;2023-11-19T13:18:34;13.30;99.90
42907;DHT22;28552;51.146;6.576;2023-11-19T13:21:35;13.30;99.90
42907;DHT22;28552;51.146;6.576;2023-11-19T13:24:35;13.30;99.90
42907;DHT22;28552;51.146;6.576;2023-11-19T13:27:36;13.20;99.90
42907;DHT22;28552;51.146;6.576;2023-11-19T13:30:36;13.30;99.90
42907;DHT22;28552;51.146;6.576;2023-11-19T13:33:37;13.30;99.90
42907;DHT22;28552;51.146;6.576;2023-11-19T13:36:37;13.30;99.90
42907;DHT22;28552;51.146;6.576;2023-11-19T13:39:42;13.30;99.90
42907;DHT22;28552;51.146;6.576;2023-11-19T13:42:42;13.20;99.90
42907;DHT22;28552;51.146;6.576;2023-11-19T13:45:43;13.20;99.90
42907;DHT22;28552;51.146;6.576;2023-11-19T13:48:44;13.30;99.90
42907;DHT22;28552;51.146;6.576;2023-11-19T13:51:45;13.30;99.90
42907;DHT22;28552;51.146;6.576;2023-11-19T13:54:45;13.30;99.90
42907;DHT22;28552;51.146;6.576;2023-11-19T13:57:46;13.30;99.90
42907;DHT22;28552;51.146;6.576;2023-11-19T14:00:47;13.20;99.90
42907;DHT22;28552;51.146;6.576;2023-11-19T14:03:47;13.10;99.90
42907;DHT22;28552;51.146;6.576;2023-11-19T14:06:48;13.00;99.90
42907;DHT22;28552;51.146;6.576;2023-11-19T14:09:48;12.80;99.90
42907;DHT22;28552;51.146;6.576;2023-11-19T14:12:50;12.80;99.90
42907;DHT22;28552;51.146;6.576;2023-11-19T14:15:51;12.60;99.90
42907;DHT22;28552;51.146;6.576;2023-11-19T14:18:51;12.40;99.90
42907;DHT22;28552;51.146;6.576;2023-11-19T14:21:52;12.20;99.90
42907;DHT22;28552;51.146;6.576;2023-11-19T14:24:52;12.00;99.90
42907;DHT22;28552;51.146;6.576;2023-11-19T14:27:53;11.90;99.90
42907;DHT22;28552;51.146;6.576;2023-11-19T14:30:53;11.90;99.90
42907;DHT22;28552;51.146;6.576;2023-11-19T14:33:57;11.80;99.90
42907;DHT22;28552;51.146;6.576;2023-11-19T14:36:58;11.90;99.90
42907;DHT22;28552;51.146;6.576;2023-11-19T14:39:59;12.00;99.90
42907;DHT22;28552;51.146;6.576;2023-11-19T14:43:00;12.10;99.90
42907;DHT22;28552;51.146;6.576;2023-11-19T14:46:01;12.20;99.90
42907;DHT22;28552;51.146;6.576;2023-11-19T14:49:03;12.30;99.90
42907;DHT22;28552;51.146;6.576;2023-11-19T14:52:04;12.40;99.90
42907;DHT22;28552;51.146;6.576;2023-11-19T14:55:05;12.40;99.90
42907;DHT22;28552;51.146;6.576;2023-11-19T14:58:06;12.40;99.90
42907;DHT22;28552;51.146;6.576;2023-11-19T15:01:07;12.20;99.90
42907;DHT22;28552;51.146;6.576;2023-11-19T15:04:11;11.90;99.90
42907;DHT22;28552;51.146;6.576;2023-11-19T15:07:12;11.60;99.90
42907;DHT22;28552;51.146;6.576;2023-11-19T15:10:12;11.30;99.90
42907;DHT22;28552;51.146;6.576;2023-11-19T15:13:13;11.20;99.90
42907;DHT22;28552;51.146;6.576;2023-11-19T15:16:13;11.10;99.90
42907;DHT22;28552;51.146;6.576;2023-11-19T15:19:14;11.10;99.90
42907;DHT22;28552;51.146;6.576;2023-11-19T15:22:15;11.00;99.90
42907;DHT22;28552;51.146;6.576;2023-11-19T15:25:16;11.10;99.90
42907;DHT22;28552;51.146;6.576;2023-11-19T15:28:16;11.10;99.90
42907;DHT22;28552;51.146;6.576;2023-11-19T15:31:17;11.10;99.90
42907;DHT22;28552;51.146;6.576;2023-11-19T15:34:17;11.20;99.90
42907;DHT22;28552;51.146;6.576;2023-11-19T15:37:19;11.20;99.90
42907;DHT22;28552;51.146;6.576;2023-11-19T15:40:20;11.20;99.90
42907;DHT22;28552;51.146;6.576;2023-11-19T15:43:21;11.20;99.90
42907;DHT22;28552;51.146;6.576;2023-11-19T15:46:23;11.20;99.90
42907;DHT22;28552;51.146;6.576;2023-11-19T15:49:23;11.30;99.90
42907;DHT22;28552;51.146;6.576;2023-11-19T15:52:24;11.30;99.90
42907;DHT22;28552;51.146;6.576;2023-11-19T15:55:24;11.30;99.90
42907;DHT22;28552;51.146;6.576;2023-11-19T15:58:25;11.30;99.90
42907;DHT22;28552;51.146;6.576;2023-11-19T16:01:25;11.40;99.90
42907;DHT22;28552;51.146;6.576;2023-11-19T16:04:28;11.30;99.90
42907;DHT22;28552;51.146;6.576;2023-11-19T16:07:28;11.20;99.90
42907;DHT22;28552;51.146;6.576;2023-11-19T16:10:30;11.00;99.90
42907;DHT22;28552;51.146;6.576;2023-11-19T16:13:30;11.00;99.90
42907;DHT22;28552;51.146;6.576;2023-11-19T16:16:31;10.90;99.90
42907;DHT22;28552;51.146;6.576;2023-11-19T16:19:31;10.90;99.90
42907;DHT22;28552;51.146;6.576;2023-11-19T16:22:34;10.90;99.90
42907;DHT22;28552;51.146;6.576;2023-11-19T16:25:35;10.90;99.90
42907;DHT22;28552;51.146;6.576;2023-11-19T16:28:37;10.90;99.90
42907;DHT22;28552;51.146;6.576;2023-11-19T16:31:38;10.80;99.90
42907;DHT22;28552;51.146;6.576;2023-11-19T16:34:39;10.80;99.90
42907;DHT22;28552;51.146;6.576;2023-11-19T16:37:42;10.90;99.90
42907;DHT22;28552;51.146;6.576;2023-11-19T16:40:43;11.00;99.90
42907;DHT22;28552;51.146;6.576;2023-11-19T16:43:44;11.00;99.90
42907;DHT22;28552;51.146;6.576;2023-11-19T16:46:44;11.10;99.90
42907;DHT22;28552;51.146;6.576;2023-11-19T16:49:46;11.10;99.90
42907;DHT22;28552;51.146;6.576;2023-11-19T16:52:46;11.20;99.90
42907;DHT22;28552;51.146;6.576;2023-11-19T16:55:47;11.30;99.90
42907;DHT22;28552;51.146;6.576;2023-11-19T16:58:48;11.40;99.90
42907;DHT22;28552;51.146;6.576;2023-11-19T17:01:48;11.50;99.90
42907;DHT22;28552;51.146;6.576;2023-11-19T17:04:51;11.50;99.90
42907;DHT22;28552;51.146;6.576;2023-11-19T17:07:51;11.60;99.90
42907;DHT22;28552;51.146;6.576;2023-11-19T17:10:52;11.60;99.90
42907;DHT22;28552;51.146;6.576;2023-11-19T17:13:53;11.60;99.90
42907;DHT22;28552;51.146;6.576;2023-11-19T17:16:54;11.70;99.90
42907;DHT22;28552;51.146;6.576;2023-11-19T17:19:54;11.60;99.90
42907;DHT22;28552;51.146;6.576;2023-11-19T17:22:55;11.60;99.90
42907;DHT22;28552;51.146;6.576;2023-11-19T17:25:56;11.70;99.90
42907;DHT22;28552;51.146;6.576;2023-11-19T17:28:58;11.70;99.90
42907;DHT22;28552;51.146;6.576;2023-11-19T17:31:59;11.80;99.90
42907;DHT22;28552;51.146;6.576;2023-11-19T17:35:00;11.90;99.90
42907;DHT22;28552;51.146;6.576;2023-11-19T17:38:01;11.90;99.90
42907;DHT22;28552;51.146;6.576;2023-11-19T17:41:02;11.90;99.90
42907;DHT22;28552;51.146;6.576;2023-11-19T17:44:03;11.90;99.90
42907;DHT22;28552;51.146;6.576;2023-11-19T17:47:04;11.90;99.90
42907;DHT22;28552;51.146;6.576;2023-11-19T17:50:05;11.90;99.90
42907;DHT22;28552;51.146;6.576;2023-11-19T17:53:05;11.90;99.90
42907;DHT22;28552;51.146;6.576;2023-11-19T17:56:06;11.90;99.90
42907;DHT22;28552;51.146;6.576;2023-11-19T17:59:07;11.90;99.90
42907;DHT22;28552;51.146;6.576;2023-11-19T18:02:08;12.00;99.90
42907;DHT22;28552;51.146;6.576;2023-11-19T18:05:08;12.00;99.90
42907;DHT22;28552;51.146;6.576;2023-11-19T18:08:09;12.00;99.90
42907;DHT22;28552;51.146;6.576;2023-11-19T18:11:11;12.00;99.90
42907;DHT22;28552;51.146;6.576;2023-11-19T18:14:12;12.10;99.90
42907;DHT22;28552;51.146;6.576;2023-11-19T18:17:12;12.00;99.90
42907;DHT22;28552;51.146;6.576;2023-11-19T18:20:13;12.00;99.90
42907;DHT22;28552;51.146;6.576;2023-11-19T18:23:14;11.90;99.90
42907;DHT22;28552;51.146;6.576;2023-11-19T18:26:15;11.80;99.90
42907;DHT22;28552;51.146;6.576;2023-11-19T18:29:16;11.60;99.90
42907;DHT22;28552;51.146;6.576;2023-11-19T18:32:17;11.50;99.90
42907;DHT22;28552;51.146;6.576;2023-11-19T18:35:18;11.50;99.90
42907;DHT22;28552;51.146;6.576;2023-11-19T18:38:23;11.40;99.90
42907;DHT22;28552;51.146;6.576;2023-11-19T18:41:24;11.30;99.90
42907;DHT22;28552;51.146;6.576;2023-11-19T18:44:24;11.30;99.90
42907;DHT22;28552;51.146;6.576;2023-11-19T18:47:25;11.30;99.90
42907;DHT22;28552;51.146;6.576;2023-11-19T18:50:26;11.20;99.90
42907;DHT22;28552;51.146;6.576;2023-11-19T18:53:26;11.10;99.90
42907;DHT22;28552;51.146;6.576;2023-11-19T18:56:27;11.00;99.90
42907;DHT22;28552;51.146;6.576;2023-11-19T18:59:27;10.80;99.90
42907;DHT22;28552;51.146;6.576;2023-11-19T19:02:28;10.70;99.90
42907;DHT22;28552;51.146;6.576;2023-11-19T19:05:29;10.70;99.90
42907;DHT22;28552;51.146;6.576;2023-11-19T19:08:30;10.60;99.90
42907;DHT22;28552;51.146;6.576;2023-11-19T19:11:33;10.60;99.90
42907;DHT22;28552;51.146;6.576;2023-11-19T19:14:33;10.60;99.90
42907;DHT22;28552;51.146;6.576;2023-11-19T19:17:38;10.60;99.90
42907;DHT22;28552;51.146;6.576;2023-11-19T19:20:38;10.60;99.90
42907;DHT22;28552;51.146;6.576;2023-11-19T19:23:39;10.70;99.90